Time,TemperatureF,DewpointF,PressureIn,WindDirection,WindDirectionDegrees,WindSpeedMPH,WindSpeedGustMPH,Humidity,HourlyPrecipIn,Conditions,Clouds,dailyrainin,SoftwareType,DateUTC
2013-02-08 00:00:00,34.4,28.0,30.26,North,0,0.0,0.0,77,0.00,,---,0.00,VWS V14.00,2013-02-08 05:00:00,
2013-02-08 00:05:00,34.4,28.3,30.25,North,0,0.0,0.0,78,0.00,,---,0.00,VWS V14.00,2013-02-08 05:05:00,
2013-02-08 00:10:00,34.5,28.4,30.25,North,0,0.0,0.0,78,0.00,,---,0.00,VWS V14.00,2013-02-08 05:10:00,
2013-02-08 00:15:00,34.6,28.5,30.25,North,0,0.0,0.0,78,0.00,,---,0.00,VWS V14.00,2013-02-08 05:15:00,
2013-02-08 00:20:00,34.7,28.9,30.24,North,0,0.0,0.0,79,0.00,,---,0.00,VWS V14.00,2013-02-08 05:20:00,
2013-02-08 00:25:00,34.7,28.9,30.24,North,0,0.0,0.0,79,0.00,,---,0.00,VWS V14.00,2013-02-08 05:25:00,
2013-02-08 00:30:00,34.8,29.3,30.24,North,0,0.0,0.0,80,0.00,,---,0.00,VWS V14.00,2013-02-08 05:30:00,
2013-02-08 00:35:00,34.9,29.4,30.23,North,0,0.0,0.0,80,0.00,,---,0.00,VWS V14.00,2013-02-08 05:35:00,
2013-02-08 00:40:00,35.0,29.5,30.23,North,0,0.0,0.0,80,0.00,,---,0.00,VWS V14.00,2013-02-08 05:40:00,
2013-02-08 00:45:00,35.2,30.0,30.23,North,0,0.0,0.0,81,0.00,,---,0.00,VWS V14.00,2013-02-08 05:45:00,
2013-02-08 00:50:00,35.3,30.1,30.23,North,0,0.0,0.0,81,0.00,,---,0.00,VWS V14.00,2013-02-08 05:50:00,
2013-02-08 00:55:00,35.5,30.6,30.23,North,0,0.0,0.0,82,0.00,,---,0.00,VWS V14.00,2013-02-08 05:55:00,
2013-02-08 01:00:00,35.6,30.7,30.23,North,0,0.0,0.0,82,0.00,,---,0.00,VWS V14.00,2013-02-08 06:00:00,
2013-02-08 01:05:00,35.7,30.8,30.22,North,0,0.0,0.0,82,0.00,,---,0.00,VWS V14.00,2013-02-08 06:05:00,
2013-02-08 01:10:00,35.9,31.2,30.22,North,0,0.0,0.0,83,0.00,,---,0.00,VWS V14.00,2013-02-08 06:10:00,
2013-02-08 01:15:00,36.0,31.4,30.22,North,0,0.0,0.0,83,0.00,,---,0.00,VWS V14.00,2013-02-08 06:15:00,
2013-02-08 01:20:00,36.1,31.5,30.21,North,0,0.0,0.0,83,0.00,,---,0.00,VWS V14.00,2013-02-08 06:20:00,
2013-02-08 01:25:00,36.2,31.5,30.21,North,0,0.0,0.0,83,0.00,,---,0.00,VWS V14.00,2013-02-08 06:25:00,
2013-02-08 01:30:00,36.3,31.9,30.20,North,0,0.0,0.0,84,0.00,,---,0.00,VWS V14.00,2013-02-08 06:30:00,
2013-02-08 01:35:00,36.4,32.0,30.20,North,0,0.0,0.0,84,0.00,,---,0.00,VWS V14.00,2013-02-08 06:35:00,
2013-02-08 01:40:00,36.6,32.5,30.20,North,0,0.0,0.0,85,0.00,,---,0.00,VWS V14.00,2013-02-08 06:40:00,
2013-02-08 01:45:00,36.6,32.5,30.19,North,0,0.0,0.0,85,0.00,,---,0.00,VWS V14.00,2013-02-08 06:45:00,
2013-02-08 01:50:00,36.7,32.9,30.19,North,0,0.0,0.0,86,0.00,,---,0.00,VWS V14.00,2013-02-08 06:50:00,
2013-02-08 01:55:00,36.8,33.0,30.19,North,0,0.0,0.0,86,0.00,,---,0.00,VWS V14.00,2013-02-08 06:55:00,
2013-02-08 02:00:00,36.8,33.3,30.19,North,0,0.0,0.0,87,0.00,,---,0.00,VWS V14.00,2013-02-08 07:00:00,
2013-02-08 02:05:00,36.9,33.4,30.19,North,0,0.0,0.0,87,0.00,,---,0.00,VWS V14.00,2013-02-08 07:05:00,
2013-02-08 02:10:00,36.9,33.4,30.19,North,0,0.0,0.0,87,0.00,,---,0.00,VWS V14.00,2013-02-08 07:10:00,
2013-02-08 02:15:00,37.0,33.8,30.18,North,0,0.0,0.0,88,0.00,,---,0.00,VWS V14.00,2013-02-08 07:15:00,
2013-02-08 02:20:00,37.0,33.8,30.18,North,0,0.0,0.0,88,0.00,,---,0.00,VWS V14.00,2013-02-08 07:20:00,
2013-02-08 02:25:00,37.1,34.2,30.18,North,0,0.0,0.0,89,0.00,,---,0.00,VWS V14.00,2013-02-08 07:25:00,
2013-02-08 02:30:00,37.3,34.4,30.18,North,0,0.0,0.0,89,0.00,,---,0.00,VWS V14.00,2013-02-08 07:30:00,
2013-02-08 02:35:00,37.4,34.5,30.17,North,0,0.0,0.0,89,0.00,,---,0.00,VWS V14.00,2013-02-08 07:35:00,
2013-02-08 02:40:00,37.7,35.0,30.17,North,0,0.0,0.0,90,0.00,,---,0.00,VWS V14.00,2013-02-08 07:40:00,
2013-02-08 02:45:00,37.9,35.2,30.17,North,0,0.0,0.0,90,0.00,,---,0.00,VWS V14.00,2013-02-08 07:45:00,
2013-02-08 02:50:00,38.2,35.5,30.16,North,0,0.0,0.0,90,0.00,,---,0.00,VWS V14.00,2013-02-08 07:50:00,
2013-02-08 02:55:00,38.4,35.7,30.16,North,0,0.0,0.0,90,0.00,,---,0.00,VWS V14.00,2013-02-08 07:55:00,
2013-02-08 03:00:00,38.7,36.0,30.15,North,0,0.0,0.0,90,0.00,,---,0.00,VWS V14.00,2013-02-08 08:00:00,
2013-02-08 03:05:00,38.9,36.2,30.15,North,0,0.0,0.0,90,0.00,,---,0.00,VWS V14.00,2013-02-08 08:05:00,
2013-02-08 03:10:00,39.1,36.4,30.14,North,0,0.0,0.0,90,0.00,,---,0.00,VWS V14.00,2013-02-08 08:10:00,
2013-02-08 03:15:00,39.3,36.6,30.14,North,0,0.0,0.0,90,0.00,,---,0.00,VWS V14.00,2013-02-08 08:15:00,
2013-02-08 03:20:00,39.4,36.7,30.13,North,0,0.0,0.0,90,0.00,,---,0.00,VWS V14.00,2013-02-08 08:20:00,
2013-02-08 03:25:00,39.5,36.8,30.13,North,0,0.0,0.0,90,0.00,,---,0.00,VWS V14.00,2013-02-08 08:25:00,
2013-02-08 03:30:00,39.7,37.0,30.13,North,0,0.0,0.0,90,0.00,,---,0.00,VWS V14.00,2013-02-08 08:30:00,
2013-02-08 03:35:00,39.8,37.1,30.12,North,0,0.0,0.0,90,0.00,,---,0.00,VWS V14.00,2013-02-08 08:35:00,
2013-02-08 03:40:00,39.9,37.2,30.12,North,0,0.0,0.0,90,0.00,,---,0.00,VWS V14.00,2013-02-08 08:40:00,
2013-02-08 03:45:00,40.0,37.3,30.12,North,0,0.0,0.0,90,0.00,,---,0.00,VWS V14.00,2013-02-08 08:45:00,
2013-02-08 03:50:00,40.1,37.4,30.11,North,0,0.0,0.0,90,0.00,,---,0.00,VWS V14.00,2013-02-08 08:50:00,
2013-02-08 03:55:00,40.2,37.5,30.11,North,0,0.0,0.0,90,0.00,,---,0.00,VWS V14.00,2013-02-08 08:55:00,
2013-02-08 04:00:00,40.4,37.7,30.12,North,0,0.0,0.0,90,0.00,,---,0.00,VWS V14.00,2013-02-08 09:00:00,
2013-02-08 04:05:00,40.4,37.7,30.11,North,0,0.0,0.0,90,0.00,,---,0.00,VWS V14.00,2013-02-08 09:05:00,
2013-02-08 04:10:00,40.5,37.5,30.11,North,0,0.0,0.0,89,0.00,,---,0.00,VWS V14.00,2013-02-08 09:10:00,
2013-02-08 04:15:00,40.6,37.6,30.10,North,0,0.0,0.0,89,0.00,,---,0.00,VWS V14.00,2013-02-08 09:15:00,
2013-02-08 04:20:00,40.6,37.6,30.10,North,0,0.0,0.0,89,0.00,,---,0.00,VWS V14.00,2013-02-08 09:20:00,
2013-02-08 04:25:00,40.7,37.7,30.10,North,0,0.0,0.0,89,0.00,,---,0.00,VWS V14.00,2013-02-08 09:25:00,
2013-02-08 04:30:00,40.7,37.7,30.10,North,0,0.0,0.0,89,0.00,,---,0.00,VWS V14.00,2013-02-08 09:30:00,
2013-02-08 04:35:00,40.8,37.8,30.10,North,0,0.0,0.0,89,0.00,,---,0.00,VWS V14.00,2013-02-08 09:35:00,
2013-02-08 04:40:00,40.8,37.8,30.09,North,0,0.0,0.0,89,0.00,,---,0.00,VWS V14.00,2013-02-08 09:40:00,
2013-02-08 04:45:00,40.8,37.8,30.09,North,0,0.0,0.0,89,0.00,,---,0.00,VWS V14.00,2013-02-08 09:45:00,
2013-02-08 04:50:00,40.8,37.8,30.09,North,0,0.0,0.0,89,0.00,,---,0.00,VWS V14.00,2013-02-08 09:50:00,
2013-02-08 04:55:00,40.8,37.8,30.08,North,0,0.0,0.0,89,0.00,,---,0.00,VWS V14.00,2013-02-08 09:55:00,
2013-02-08 05:00:00,40.8,37.8,30.08,North,0,0.0,0.0,89,0.00,,---,0.00,VWS V14.00,2013-02-08 10:00:00,
2013-02-08 05:05:00,40.9,37.9,30.08,North,0,0.0,0.0,89,0.00,,---,0.00,VWS V14.00,2013-02-08 10:05:00,
2013-02-08 05:10:00,40.8,38.1,30.08,North,0,0.0,0.0,90,0.00,,---,0.00,VWS V14.00,2013-02-08 10:10:00,
2013-02-08 05:15:00,40.7,38.0,30.08,North,360,0.0,0.0,90,0.00,,---,0.00,VWS V14.00,2013-02-08 10:15:00,
2013-02-08 05:20:00,40.7,38.0,30.08,North,360,0.0,0.0,90,0.00,,---,0.00,VWS V14.00,2013-02-08 10:20:00,
2013-02-08 05:25:00,40.6,38.2,30.08,North,360,0.0,0.0,91,0.00,,---,0.00,VWS V14.00,2013-02-08 10:25:00,
2013-02-08 05:30:00,40.5,38.1,30.07,North,360,0.0,0.0,91,0.01,,---,0.01,VWS V14.00,2013-02-08 10:30:00,
2013-02-08 05:35:00,40.5,38.1,30.07,North,360,0.0,0.0,91,0.01,,---,0.01,VWS V14.00,2013-02-08 10:35:00,
2013-02-08 05:40:00,40.4,38.3,30.06,North,360,0.0,0.0,92,0.01,,---,0.01,VWS V14.00,2013-02-08 10:40:00,
2013-02-08 05:45:00,40.3,38.2,30.06,North,360,0.0,0.0,92,0.02,,---,0.02,VWS V14.00,2013-02-08 10:45:00,
2013-02-08 05:50:00,40.2,38.3,30.06,North,360,0.0,0.0,93,0.03,,---,0.03,VWS V14.00,2013-02-08 10:50:00,
2013-02-08 05:55:00,40.2,38.3,30.05,North,360,0.0,0.0,93,0.03,,---,0.03,VWS V14.00,2013-02-08 10:55:00,
2013-02-08 06:00:00,40.1,38.2,30.05,North,360,0.0,0.0,93,0.03,,---,0.03,VWS V14.00,2013-02-08 11:00:00,
2013-02-08 06:05:00,40.0,38.1,30.05,North,360,0.0,0.0,93,0.04,,---,0.04,VWS V14.00,2013-02-08 11:05:00,
2013-02-08 06:10:00,40.0,38.1,30.04,North,360,0.0,0.0,93,0.04,,---,0.04,VWS V14.00,2013-02-08 11:10:00,
2013-02-08 06:15:00,40.0,38.4,30.04,North,360,0.0,0.0,94,0.04,,---,0.04,VWS V14.00,2013-02-08 11:15:00,
2013-02-08 06:20:00,40.0,38.4,30.04,North,360,0.0,0.0,94,0.04,,---,0.04,VWS V14.00,2013-02-08 11:20:00,
2013-02-08 06:25:00,40.0,38.4,30.03,North,360,0.0,0.0,94,0.05,,---,0.05,VWS V14.00,2013-02-08 11:25:00,
2013-02-08 06:30:00,40.0,38.4,30.03,North,360,0.0,0.0,94,0.04,,---,0.05,VWS V14.00,2013-02-08 11:30:00,
2013-02-08 06:35:00,40.0,38.4,30.03,North,360,0.0,0.0,94,0.04,,---,0.05,VWS V14.00,2013-02-08 11:35:00,
2013-02-08 06:40:00,39.9,38.3,30.03,North,360,0.0,0.0,94,0.04,,---,0.05,VWS V14.00,2013-02-08 11:40:00,
2013-02-08 06:45:00,39.9,38.3,30.03,North,360,0.0,0.0,94,0.03,,---,0.05,VWS V14.00,2013-02-08 11:45:00,
2013-02-08 06:50:00,40.0,38.4,30.02,North,360,0.0,0.0,94,0.03,,---,0.06,VWS V14.00,2013-02-08 11:50:00,
2013-02-08 06:55:00,40.1,38.8,30.02,North,360,0.0,0.0,95,0.04,,---,0.07,VWS V14.00,2013-02-08 11:55:00,
2013-02-08 07:00:00,40.2,38.9,30.02,North,360,0.0,0.0,95,0.04,,---,0.07,VWS V14.00,2013-02-08 12:00:00,
2013-02-08 07:05:00,40.2,38.9,30.02,North,360,0.0,0.0,95,0.04,,---,0.07,VWS V14.00,2013-02-08 12:05:00,
2013-02-08 07:10:00,40.4,39.1,30.02,North,360,0.0,0.0,95,0.03,,---,0.07,VWS V14.00,2013-02-08 12:10:00,
2013-02-08 07:15:00,40.4,39.1,30.02,North,360,0.0,0.0,95,0.03,,---,0.07,VWS V14.00,2013-02-08 12:15:00,
2013-02-08 07:20:00,40.5,39.2,30.01,North,360,0.0,0.0,95,0.04,,---,0.08,VWS V14.00,2013-02-08 12:20:00,
2013-02-08 07:25:00,40.6,39.3,30.01,North,360,0.0,0.0,95,0.03,,---,0.08,VWS V14.00,2013-02-08 12:25:00,
2013-02-08 07:30:00,40.7,39.4,30.01,North,360,0.0,0.0,95,0.04,,---,0.09,VWS V14.00,2013-02-08 12:30:00,
2013-02-08 07:35:00,40.8,39.5,30.01,North,360,0.0,0.0,95,0.04,,---,0.09,VWS V14.00,2013-02-08 12:35:00,
2013-02-08 07:40:00,40.9,39.6,30.01,North,360,0.0,0.0,95,0.04,,---,0.09,VWS V14.00,2013-02-08 12:40:00,
2013-02-08 07:45:00,40.9,39.6,30.01,North,360,0.0,0.0,95,0.04,,---,0.09,VWS V14.00,2013-02-08 12:45:00,
2013-02-08 07:50:00,40.9,39.6,30.00,North,360,0.0,0.0,95,0.04,,---,0.10,VWS V14.00,2013-02-08 12:50:00,
2013-02-08 07:55:00,41.0,39.7,30.00,North,360,0.0,0.0,95,0.04,,---,0.11,VWS V14.00,2013-02-08 12:55:00,
2013-02-08 08:00:00,41.0,39.7,30.00,North,360,0.0,0.0,95,0.04,,---,0.11,VWS V14.00,2013-02-08 13:00:00,
2013-02-08 08:05:00,41.1,39.8,29.99,North,360,0.0,0.0,95,0.04,,---,0.11,VWS V14.00,2013-02-08 13:05:00,
2013-02-08 08:10:00,41.1,40.0,29.99,North,360,0.0,0.0,96,0.04,,---,0.11,VWS V14.00,2013-02-08 13:10:00,
2013-02-08 08:15:00,41.3,40.2,29.99,North,360,0.0,0.0,96,0.05,,---,0.12,VWS V14.00,2013-02-08 13:15:00,
2013-02-08 08:20:00,41.4,40.3,29.99,North,360,0.0,0.0,96,0.05,,---,0.13,VWS V14.00,2013-02-08 13:20:00,
2013-02-08 08:25:00,41.6,40.5,29.98,North,360,0.0,0.0,96,0.05,,---,0.13,VWS V14.00,2013-02-08 13:25:00,
2013-02-08 08:30:00,41.8,40.8,29.98,North,360,0.0,0.0,96,0.05,,---,0.14,VWS V14.00,2013-02-08 13:30:00,
2013-02-08 08:35:00,41.9,40.8,29.97,North,360,0.0,0.0,96,0.05,,---,0.14,VWS V14.00,2013-02-08 13:35:00,
2013-02-08 08:40:00,41.9,40.8,29.97,North,360,0.0,0.0,96,0.06,,---,0.15,VWS V14.00,2013-02-08 13:40:00,
2013-02-08 08:45:00,41.9,40.8,29.96,North,360,0.0,0.0,96,0.06,,---,0.15,VWS V14.00,2013-02-08 13:45:00,
2013-02-08 08:50:00,41.9,40.8,29.96,North,360,0.0,0.0,96,0.06,,---,0.16,VWS V14.00,2013-02-08 13:50:00,
2013-02-08 08:55:00,41.4,40.1,29.95,North,360,0.0,0.0,95,0.07,,---,0.17,VWS V14.00,2013-02-08 13:55:00,
2013-02-08 09:00:00,40.3,38.7,29.95,North,360,0.0,0.0,94,0.06,,---,0.17,VWS V14.00,2013-02-08 14:00:00,
2013-02-08 09:05:00,39.5,37.9,29.94,North,360,0.0,0.0,94,0.08,,---,0.19,VWS V14.00,2013-02-08 14:05:00,
2013-02-08 09:10:00,38.9,37.3,29.94,North,360,0.0,0.0,94,0.08,,---,0.19,VWS V14.00,2013-02-08 14:10:00,
2013-02-08 09:15:00,38.6,37.0,29.94,North,360,0.0,0.0,94,0.08,,---,0.20,VWS V14.00,2013-02-08 14:15:00,
2013-02-08 09:20:00,38.3,37.0,29.94,North,360,0.0,0.0,95,0.08,,---,0.21,VWS V14.00,2013-02-08 14:20:00,
2013-02-08 09:25:00,38.2,36.9,29.93,North,360,0.0,0.0,95,0.09,,---,0.22,VWS V14.00,2013-02-08 14:25:00,
2013-02-08 09:30:00,38.1,36.8,29.93,North,360,0.0,0.0,95,0.09,,---,0.23,VWS V14.00,2013-02-08 14:30:00,
2013-02-08 09:35:00,38.0,36.7,29.93,North,360,0.0,0.0,95,0.10,,---,0.24,VWS V14.00,2013-02-08 14:35:00,
2013-02-08 09:40:00,38.0,36.7,29.92,North,360,0.0,0.0,95,0.10,,---,0.25,VWS V14.00,2013-02-08 14:40:00,
2013-02-08 09:45:00,38.1,36.8,29.92,North,360,0.0,0.0,95,0.11,,---,0.26,VWS V14.00,2013-02-08 14:45:00,
2013-02-08 09:50:00,38.2,37.2,29.92,North,360,0.0,0.0,96,0.11,,---,0.27,VWS V14.00,2013-02-08 14:50:00,
2013-02-08 09:55:00,38.3,37.3,29.91,North,360,0.0,0.0,96,0.10,,---,0.27,VWS V14.00,2013-02-08 14:55:00,
2013-02-08 10:00:00,38.5,37.5,29.90,North,360,0.0,0.0,96,0.11,,---,0.28,VWS V14.00,2013-02-08 15:00:00,
2013-02-08 10:05:00,38.8,37.8,29.90,North,360,0.0,0.0,96,0.11,,---,0.29,VWS V14.00,2013-02-08 15:05:00,
2013-02-08 10:10:00,39.5,38.5,29.89,North,360,0.0,0.0,96,0.10,,---,0.29,VWS V14.00,2013-02-08 15:10:00,
2013-02-08 10:15:00,40.2,39.4,29.89,North,360,0.0,0.0,97,0.10,,---,0.30,VWS V14.00,2013-02-08 15:15:00,
2013-02-08 10:20:00,40.9,40.1,29.88,North,360,0.0,0.0,97,0.09,,---,0.30,VWS V14.00,2013-02-08 15:20:00,
2013-02-08 10:25:00,41.2,40.4,29.88,North,360,0.0,0.0,97,0.09,,---,0.31,VWS V14.00,2013-02-08 15:25:00,
2013-02-08 10:30:00,41.3,40.2,29.87,North,360,0.0,0.0,96,0.08,,---,0.31,VWS V14.00,2013-02-08 15:30:00,
2013-02-08 10:35:00,41.3,40.2,29.87,North,360,0.0,0.0,96,0.07,,---,0.31,VWS V14.00,2013-02-08 15:35:00,
2013-02-08 10:40:00,41.4,40.3,29.87,North,360,0.0,0.0,96,0.06,,---,0.31,VWS V14.00,2013-02-08 15:40:00,
2013-02-08 10:45:00,41.4,40.3,29.86,North,360,0.0,0.0,96,0.07,,---,0.32,VWS V14.00,2013-02-08 15:45:00,
2013-02-08 10:50:00,41.4,40.1,29.86,North,360,0.0,0.0,95,0.06,,---,0.33,VWS V14.00,2013-02-08 15:50:00,
2013-02-08 10:55:00,41.4,40.1,29.86,North,360,0.0,0.0,95,0.06,,---,0.33,VWS V14.00,2013-02-08 15:55:00,
2013-02-08 11:00:00,41.4,40.1,29.85,North,360,0.0,0.0,95,0.05,,---,0.33,VWS V14.00,2013-02-08 16:00:00,
2013-02-08 11:05:00,41.3,40.0,29.85,North,360,0.0,0.0,95,0.05,,---,0.34,VWS V14.00,2013-02-08 16:05:00,
2013-02-08 11:10:00,41.3,40.0,29.84,North,360,0.0,0.0,95,0.06,,---,0.35,VWS V14.00,2013-02-08 16:10:00,
2013-02-08 11:15:00,41.3,40.0,29.83,North,360,0.0,0.0,95,0.06,,---,0.35,VWS V14.00,2013-02-08 16:15:00,
2013-02-08 11:20:00,41.2,39.9,29.83,North,360,0.0,0.0,95,0.05,,---,0.35,VWS V14.00,2013-02-08 16:20:00,
2013-02-08 11:25:00,41.2,39.6,29.82,North,360,0.0,0.0,94,0.05,,---,0.36,VWS V14.00,2013-02-08 16:25:00,
2013-02-08 11:30:00,41.1,39.5,29.82,North,360,0.0,0.0,94,0.06,,---,0.37,VWS V14.00,2013-02-08 16:30:00,
2013-02-08 11:35:00,41.0,39.4,29.81,North,360,0.0,0.0,94,0.06,,---,0.37,VWS V14.00,2013-02-08 16:35:00,
2013-02-08 11:40:00,40.9,39.3,29.81,North,360,0.0,0.0,94,0.06,,---,0.37,VWS V14.00,2013-02-08 16:40:00,
2013-02-08 11:45:00,40.8,39.2,29.80,North,360,0.0,0.0,94,0.05,,---,0.37,VWS V14.00,2013-02-08 16:45:00,
2013-02-08 11:50:00,40.7,39.1,29.80,North,360,0.0,0.0,94,0.05,,---,0.38,VWS V14.00,2013-02-08 16:50:00,
2013-02-08 11:55:00,40.6,39.0,29.79,North,360,0.0,0.0,94,0.06,,---,0.39,VWS V14.00,2013-02-08 16:55:00,
2013-02-08 12:00:00,40.5,38.9,29.78,North,360,0.0,0.0,94,0.06,,---,0.39,VWS V14.00,2013-02-08 17:00:00,
2013-02-08 12:05:00,40.4,38.8,29.77,North,360,0.0,0.0,94,0.05,,---,0.39,VWS V14.00,2013-02-08 17:05:00,
2013-02-08 12:10:00,40.3,38.7,29.77,North,360,0.0,0.0,94,0.06,,---,0.40,VWS V14.00,2013-02-08 17:10:00,
2013-02-08 12:15:00,40.2,38.6,29.77,North,360,0.0,0.0,94,0.06,,---,0.41,VWS V14.00,2013-02-08 17:15:00,
2013-02-08 12:20:00,40.1,38.5,29.76,North,360,0.0,0.0,94,0.06,,---,0.41,VWS V14.00,2013-02-08 17:20:00,
2013-02-08 12:25:00,40.0,38.4,29.75,North,360,0.0,0.0,94,0.05,,---,0.41,VWS V14.00,2013-02-08 17:25:00,
2013-02-08 12:30:00,39.8,38.2,29.75,North,360,0.0,0.0,94,0.05,,---,0.41,VWS V14.00,2013-02-08 17:30:00,
2013-02-08 12:35:00,39.7,38.1,29.74,North,360,0.0,0.0,94,0.05,,---,0.42,VWS V14.00,2013-02-08 17:35:00,
2013-02-08 12:40:00,39.5,37.7,29.73,North,360,0.0,0.0,93,0.05,,---,0.42,VWS V14.00,2013-02-08 17:40:00,
2013-02-08 12:45:00,39.1,37.5,29.73,North,360,0.0,0.0,94,0.05,,---,0.42,VWS V14.00,2013-02-08 17:45:00,
2013-02-08 12:50:00,38.9,37.3,29.73,North,360,0.0,0.0,94,0.04,,---,0.42,VWS V14.00,2013-02-08 17:50:00,
2013-02-08 12:55:00,38.7,37.1,29.72,North,360,0.0,0.0,94,0.04,,---,0.43,VWS V14.00,2013-02-08 17:55:00,
2013-02-08 13:00:00,38.6,37.0,29.72,North,360,0.0,0.0,94,0.04,,---,0.43,VWS V14.00,2013-02-08 18:00:00,
2013-02-08 13:05:00,38.4,36.8,29.72,North,360,0.0,0.0,94,0.04,,---,0.43,VWS V14.00,2013-02-08 18:05:00,
2013-02-08 13:10:00,38.3,36.7,29.71,North,360,0.0,0.0,94,0.03,,---,0.43,VWS V14.00,2013-02-08 18:10:00,
2013-02-08 13:15:00,38.2,36.6,29.71,North,360,0.0,0.0,94,0.04,,---,0.44,VWS V14.00,2013-02-08 18:15:00,
2013-02-08 13:20:00,38.2,36.6,29.70,North,360,0.0,0.0,94,0.03,,---,0.44,VWS V14.00,2013-02-08 18:20:00,
2013-02-08 13:25:00,38.1,36.5,29.70,North,360,0.0,0.0,94,0.04,,---,0.45,VWS V14.00,2013-02-08 18:25:00,
2013-02-08 13:30:00,38.0,36.4,29.69,North,360,0.0,0.0,94,0.05,,---,0.46,VWS V14.00,2013-02-08 18:30:00,
2013-02-08 13:35:00,37.8,36.2,29.69,North,360,0.0,0.0,94,0.05,,---,0.47,VWS V14.00,2013-02-08 18:35:00,
2013-02-08 13:40:00,37.7,36.1,29.69,North,360,0.0,0.0,94,0.07,,---,0.49,VWS V14.00,2013-02-08 18:40:00,
2013-02-08 13:45:00,37.7,36.1,29.69,North,360,0.0,0.0,94,0.08,,---,0.50,VWS V14.00,2013-02-08 18:45:00,
2013-02-08 13:50:00,37.6,36.0,29.68,North,360,0.0,0.0,94,0.09,,---,0.51,VWS V14.00,2013-02-08 18:50:00,
2013-02-08 13:55:00,37.5,35.9,29.68,North,360,0.0,0.0,94,0.11,,---,0.53,VWS V14.00,2013-02-08 18:55:00,
2013-02-08 14:00:00,37.4,35.8,29.68,North,360,0.0,0.0,94,0.11,,---,0.54,VWS V14.00,2013-02-08 19:00:00,
2013-02-08 14:05:00,37.4,35.8,29.68,North,360,0.0,0.0,94,0.12,,---,0.55,VWS V14.00,2013-02-08 19:05:00,
2013-02-08 14:10:00,37.4,35.8,29.67,North,360,0.0,0.0,94,0.14,,---,0.57,VWS V14.00,2013-02-08 19:10:00,
2013-02-08 14:15:00,37.3,35.7,29.67,North,360,0.0,0.0,94,0.14,,---,0.58,VWS V14.00,2013-02-08 19:15:00,
2013-02-08 14:20:00,37.3,35.7,29.66,North,360,0.0,0.0,94,0.15,,---,0.59,VWS V14.00,2013-02-08 19:20:00,
2013-02-08 14:25:00,37.3,35.7,29.66,North,360,0.0,0.0,94,0.15,,---,0.60,VWS V14.00,2013-02-08 19:25:00,
2013-02-08 14:30:00,37.2,35.6,29.66,North,360,0.0,0.0,94,0.15,,---,0.61,VWS V14.00,2013-02-08 19:30:00,
2013-02-08 14:35:00,37.1,35.5,29.66,North,360,0.0,0.0,94,0.14,,---,0.61,VWS V14.00,2013-02-08 19:35:00,
2013-02-08 14:40:00,37.0,35.4,29.66,North,360,0.0,0.0,94,0.13,,---,0.61,VWS V14.00,2013-02-08 19:40:00,
2013-02-08 14:45:00,36.9,35.3,29.65,North,360,0.0,0.0,94,0.11,,---,0.61,VWS V14.00,2013-02-08 19:45:00,
2013-02-08 14:50:00,36.9,35.3,29.66,North,360,0.0,0.0,94,0.11,,---,0.62,VWS V14.00,2013-02-08 19:50:00,
2013-02-08 14:55:00,36.9,35.1,29.66,North,360,0.0,0.0,93,0.10,,---,0.63,VWS V14.00,2013-02-08 19:55:00,
2013-02-08 15:00:00,37.0,35.2,29.66,North,360,0.0,0.0,93,0.09,,---,0.63,VWS V14.00,2013-02-08 20:00:00,
2013-02-08 15:05:00,36.9,35.1,29.66,North,360,0.0,0.0,93,0.10,,---,0.65,VWS V14.00,2013-02-08 20:05:00,
2013-02-08 15:10:00,37.0,35.2,29.65,North,360,0.0,0.0,93,0.08,,---,0.65,VWS V14.00,2013-02-08 20:10:00,
2013-02-08 15:15:00,37.0,35.2,29.65,North,360,0.0,0.0,93,0.08,,---,0.66,VWS V14.00,2013-02-08 20:15:00,
2013-02-08 15:20:00,36.8,35.0,29.65,North,360,0.0,0.0,93,0.08,,---,0.67,VWS V14.00,2013-02-08 20:20:00,
2013-02-08 15:25:00,36.6,34.8,29.65,North,360,0.0,0.0,93,0.07,,---,0.67,VWS V14.00,2013-02-08 20:25:00,
2013-02-08 15:30:00,36.4,34.6,29.65,North,360,0.0,0.0,93,0.07,,---,0.67,VWS V14.00,2013-02-08 20:30:00,
2013-02-08 15:35:00,36.2,34.4,29.65,North,360,0.0,0.0,93,0.07,,---,0.68,VWS V14.00,2013-02-08 20:35:00,
2013-02-08 15:40:00,36.1,34.3,29.65,North,360,0.0,0.0,93,0.08,,---,0.69,VWS V14.00,2013-02-08 20:40:00,
2013-02-08 15:45:00,35.9,34.1,29.64,North,360,0.0,0.0,93,0.08,,---,0.69,VWS V14.00,2013-02-08 20:45:00,
2013-02-08 15:50:00,35.7,33.9,29.64,North,360,0.0,0.0,93,0.07,,---,0.69,VWS V14.00,2013-02-08 20:50:00,
2013-02-08 15:55:00,35.6,33.8,29.64,North,360,0.0,0.0,93,0.07,,---,0.70,VWS V14.00,2013-02-08 20:55:00,
2013-02-08 16:00:00,35.5,33.7,29.64,North,360,0.0,0.0,93,0.07,,---,0.70,VWS V14.00,2013-02-08 21:00:00,
2013-02-08 16:05:00,35.3,33.5,29.64,North,360,0.0,0.0,93,0.07,,---,0.71,VWS V14.00,2013-02-08 21:05:00,
2013-02-08 16:10:00,35.2,33.4,29.63,North,360,0.0,0.0,93,0.06,,---,0.71,VWS V14.00,2013-02-08 21:10:00,
2013-02-08 16:15:00,35.2,33.4,29.64,North,360,0.0,0.0,93,0.05,,---,0.71,VWS V14.00,2013-02-08 21:15:00,
2013-02-08 16:20:00,35.2,33.4,29.64,North,360,0.0,0.0,93,0.05,,---,0.71,VWS V14.00,2013-02-08 21:20:00,
2013-02-08 16:25:00,35.2,33.4,29.64,North,360,0.0,0.0,93,0.04,,---,0.71,VWS V14.00,2013-02-08 21:25:00,
2013-02-08 16:30:00,35.1,33.3,29.64,North,360,0.0,0.0,93,0.04,,---,0.71,VWS V14.00,2013-02-08 21:30:00,
2013-02-08 16:35:00,35.0,33.2,29.63,North,360,0.0,0.0,93,0.03,,---,0.71,VWS V14.00,2013-02-08 21:35:00,
2013-02-08 16:40:00,35.0,33.2,29.63,North,360,0.0,0.0,93,0.03,,---,0.71,VWS V14.00,2013-02-08 21:40:00,
2013-02-08 16:45:00,35.0,33.2,29.63,North,360,0.0,0.0,93,0.02,,---,0.71,VWS V14.00,2013-02-08 21:45:00,
2013-02-08 16:50:00,35.0,33.2,29.64,North,360,0.0,0.0,93,0.02,,---,0.71,VWS V14.00,2013-02-08 21:50:00,
2013-02-08 16:55:00,35.1,33.0,29.64,North,360,0.0,0.0,92,0.01,,---,0.71,VWS V14.00,2013-02-08 21:55:00,
2013-02-08 17:00:00,35.0,32.9,29.63,North,360,0.0,0.0,92,0.01,,---,0.71,VWS V14.00,2013-02-08 22:00:00,
2013-02-08 17:05:00,35.0,32.9,29.63,North,360,0.0,0.0,92,0.00,,---,0.71,VWS V14.00,2013-02-08 22:05:00,
2013-02-08 17:10:00,35.0,32.9,29.63,North,360,0.0,0.0,92,0.00,,---,0.71,VWS V14.00,2013-02-08 22:10:00,
2013-02-08 17:15:00,35.0,32.9,29.63,North,360,0.0,0.0,92,0.00,,---,0.71,VWS V14.00,2013-02-08 22:15:00,
2013-02-08 17:20:00,34.9,32.8,29.63,North,360,0.0,0.0,92,0.00,,---,0.71,VWS V14.00,2013-02-08 22:20:00,
2013-02-08 17:25:00,34.8,32.7,29.63,North,360,0.0,0.0,92,0.00,,---,0.71,VWS V14.00,2013-02-08 22:25:00,
2013-02-08 17:30:00,34.8,33.0,29.62,North,360,0.0,0.0,93,0.00,,---,0.71,VWS V14.00,2013-02-08 22:30:00,
2013-02-08 17:35:00,34.6,32.8,29.62,North,360,0.0,0.0,93,0.00,,---,0.71,VWS V14.00,2013-02-08 22:35:00,
2013-02-08 17:40:00,34.6,32.8,29.63,North,360,0.0,0.0,93,0.00,,---,0.71,VWS V14.00,2013-02-08 22:40:00,
2013-02-08 17:45:00,34.6,32.5,29.63,North,360,0.0,0.0,92,0.00,,---,0.71,VWS V14.00,2013-02-08 22:45:00,
2013-02-08 17:50:00,34.6,32.5,29.63,North,360,0.0,0.0,92,0.00,,---,0.71,VWS V14.00,2013-02-08 22:50:00,
2013-02-08 17:55:00,34.6,32.5,29.63,North,360,0.0,0.0,92,0.00,,---,0.71,VWS V14.00,2013-02-08 22:55:00,
2013-02-08 18:00:00,34.6,32.5,29.63,North,360,0.0,0.0,92,0.00,,---,0.71,VWS V14.00,2013-02-08 23:00:00,
2013-02-08 18:05:00,34.5,32.2,29.63,North,360,0.0,0.0,91,0.00,,---,0.71,VWS V14.00,2013-02-08 23:05:00,
2013-02-08 18:10:00,34.5,32.2,29.63,North,360,0.0,0.0,91,0.00,,---,0.71,VWS V14.00,2013-02-08 23:10:00,
2013-02-08 18:15:00,34.5,32.2,29.63,North,360,0.0,0.0,91,0.00,,---,0.71,VWS V14.00,2013-02-08 23:15:00,
2013-02-08 18:20:00,34.5,32.2,29.63,North,360,0.0,0.0,91,0.00,,---,0.71,VWS V14.00,2013-02-08 23:20:00,
2013-02-08 18:25:00,34.6,32.2,29.63,North,360,0.0,0.0,91,0.00,,---,0.71,VWS V14.00,2013-02-08 23:25:00,
2013-02-08 18:30:00,34.5,32.2,29.63,North,360,0.0,0.0,91,0.00,,---,0.71,VWS V14.00,2013-02-08 23:30:00,
2013-02-08 18:35:00,34.5,32.2,29.63,North,360,0.0,0.0,91,0.00,,---,0.71,VWS V14.00,2013-02-08 23:35:00,
2013-02-08 18:40:00,34.5,32.2,29.63,North,360,0.0,0.0,91,0.00,,---,0.71,VWS V14.00,2013-02-08 23:40:00,
2013-02-08 18:45:00,34.4,32.0,29.63,North,360,0.0,0.0,91,0.00,,---,0.71,VWS V14.00,2013-02-08 23:45:00,
2013-02-08 18:50:00,34.4,32.0,29.64,North,360,0.0,0.0,91,0.00,,---,0.71,VWS V14.00,2013-02-08 23:50:00,
2013-02-08 18:55:00,34.4,32.0,29.64,North,360,0.0,0.0,91,0.00,,---,0.71,VWS V14.00,2013-02-08 23:55:00,
2013-02-08 19:00:00,34.3,32.0,29.64,North,360,0.0,0.0,91,0.00,,---,0.71,VWS V14.00,2013-02-09 00:00:00,
2013-02-08 19:05:00,34.3,32.0,29.64,North,360,0.0,0.0,91,0.00,,---,0.71,VWS V14.00,2013-02-09 00:05:00,
2013-02-08 19:10:00,34.3,32.0,29.64,North,360,0.0,0.0,91,0.00,,---,0.71,VWS V14.00,2013-02-09 00:10:00,
2013-02-08 19:15:00,34.2,31.9,29.65,North,360,0.0,0.0,91,0.00,,---,0.71,VWS V14.00,2013-02-09 00:15:00,
2013-02-08 19:20:00,34.2,31.9,29.65,North,360,0.0,0.0,91,0.00,,---,0.71,VWS V14.00,2013-02-09 00:20:00,
2013-02-08 19:25:00,34.1,31.8,29.66,North,360,0.0,0.0,91,0.00,,---,0.71,VWS V14.00,2013-02-09 00:25:00,
2013-02-08 19:30:00,34.1,31.8,29.66,North,360,0.0,0.0,91,0.00,,---,0.71,VWS V14.00,2013-02-09 00:30:00,
2013-02-08 19:35:00,34.0,31.6,29.66,North,360,0.0,0.0,91,0.00,,---,0.71,VWS V14.00,2013-02-09 00:35:00,
2013-02-08 19:40:00,34.0,31.6,29.67,North,360,0.0,0.0,91,0.00,,---,0.71,VWS V14.00,2013-02-09 00:40:00,
2013-02-08 19:45:00,34.0,31.6,29.67,North,360,0.0,0.0,91,0.00,,---,0.71,VWS V14.00,2013-02-09 00:45:00,
2013-02-08 19:50:00,34.0,31.6,29.67,North,360,0.0,0.0,91,0.00,,---,0.71,VWS V14.00,2013-02-09 00:50:00,
2013-02-08 19:55:00,33.9,31.6,29.67,North,360,0.0,0.0,91,0.00,,---,0.71,VWS V14.00,2013-02-09 00:55:00,
2013-02-08 20:00:00,33.8,31.7,29.67,North,360,0.0,0.0,92,0.00,,---,0.71,VWS V14.00,2013-02-09 01:00:00,
2013-02-08 20:05:00,33.7,31.6,29.67,North,360,0.0,0.0,92,0.00,,---,0.71,VWS V14.00,2013-02-09 01:05:00,
2013-02-08 20:10:00,33.5,31.4,29.67,North,360,0.0,0.0,92,0.00,,---,0.71,VWS V14.00,2013-02-09 01:10:00,
2013-02-08 20:15:00,33.3,31.5,29.68,North,360,0.0,0.0,93,0.00,,---,0.71,VWS V14.00,2013-02-09 01:15:00,
2013-02-08 20:20:00,33.2,31.4,29.68,North,360,0.0,0.0,93,0.00,,---,0.71,VWS V14.00,2013-02-09 01:20:00,
2013-02-08 20:25:00,33.0,31.5,29.68,North,360,0.0,0.0,94,0.00,,---,0.71,VWS V14.00,2013-02-09 01:25:00,
2013-02-08 20:30:00,33.0,31.5,29.68,North,360,0.0,0.0,94,0.00,,---,0.71,VWS V14.00,2013-02-09 01:30:00,
2013-02-08 20:35:00,32.9,31.4,29.68,North,360,0.0,0.0,94,0.00,,---,0.71,VWS V14.00,2013-02-09 01:35:00,
2013-02-08 20:40:00,32.8,31.3,29.68,North,360,0.0,0.0,94,0.00,,---,0.71,VWS V14.00,2013-02-09 01:40:00,
2013-02-08 20:45:00,32.8,31.3,29.68,North,360,0.0,0.0,94,0.00,,---,0.71,VWS V14.00,2013-02-09 01:45:00,
2013-02-08 20:50:00,32.8,31.5,29.69,North,360,0.0,0.0,95,0.00,,---,0.71,VWS V14.00,2013-02-09 01:50:00,
2013-02-08 20:55:00,32.7,31.4,29.69,North,360,0.0,0.0,95,0.00,,---,0.71,VWS V14.00,2013-02-09 01:55:00,
2013-02-08 21:00:00,32.7,31.4,29.69,North,360,0.0,0.0,95,0.00,,---,0.71,VWS V14.00,2013-02-09 02:00:00,
2013-02-08 21:05:00,32.6,31.3,29.69,North,360,0.0,0.0,95,0.00,,---,0.71,VWS V14.00,2013-02-09 02:05:00,
2013-02-08 21:10:00,32.6,31.3,29.70,North,360,0.0,0.0,95,0.00,,---,0.71,VWS V14.00,2013-02-09 02:10:00,
2013-02-08 21:15:00,32.6,31.3,29.70,North,360,0.0,0.0,95,0.00,,---,0.71,VWS V14.00,2013-02-09 02:15:00,
2013-02-08 21:20:00,32.5,31.2,29.70,North,360,0.0,0.0,95,0.00,,---,0.71,VWS V14.00,2013-02-09 02:20:00,
2013-02-08 21:25:00,32.5,31.2,29.70,North,360,0.0,0.0,95,0.00,,---,0.71,VWS V14.00,2013-02-09 02:25:00,
2013-02-08 21:30:00,32.4,31.1,29.70,North,360,0.0,0.0,95,0.00,,---,0.71,VWS V14.00,2013-02-09 02:30:00,
2013-02-08 21:35:00,32.3,31.0,29.70,North,360,0.0,0.0,95,0.00,,---,0.71,VWS V14.00,2013-02-09 02:35:00,
2013-02-08 21:40:00,32.3,31.0,29.71,North,360,0.0,0.0,95,0.00,,---,0.71,VWS V14.00,2013-02-09 02:40:00,
2013-02-08 21:45:00,32.2,30.9,29.71,North,360,0.0,0.0,95,0.00,,---,0.71,VWS V14.00,2013-02-09 02:45:00,
2013-02-08 21:50:00,32.2,30.9,29.71,North,360,0.0,0.0,95,0.00,,---,0.71,VWS V14.00,2013-02-09 02:50:00,
2013-02-08 21:55:00,32.2,30.9,29.71,North,360,0.0,0.0,95,0.00,,---,0.71,VWS V14.00,2013-02-09 02:55:00,
2013-02-08 22:00:00,32.1,31.1,29.71,North,360,0.0,0.0,96,0.00,,---,0.71,VWS V14.00,2013-02-09 03:00:00,
2013-02-08 22:05:00,32.1,31.1,29.71,North,360,0.0,0.0,96,0.00,,---,0.71,VWS V14.00,2013-02-09 03:05:00,
2013-02-08 22:10:00,32.1,31.1,29.72,North,360,0.0,0.0,96,0.00,,---,0.71,VWS V14.00,2013-02-09 03:10:00,
2013-02-08 22:15:00,32.1,31.1,29.72,North,360,0.0,0.0,96,0.00,,---,0.71,VWS V14.00,2013-02-09 03:15:00,
2013-02-08 22:20:00,32.1,31.1,29.72,North,360,0.0,0.0,96,0.00,,---,0.71,VWS V14.00,2013-02-09 03:20:00,
2013-02-08 22:25:00,32.0,31.0,29.72,North,360,0.0,0.0,96,0.00,,---,0.71,VWS V14.00,2013-02-09 03:25:00,
2013-02-08 22:30:00,32.0,31.0,29.72,North,360,0.0,0.0,96,0.00,,---,0.71,VWS V14.00,2013-02-09 03:30:00,
2013-02-08 22:35:00,31.9,30.9,29.72,North,360,0.0,0.0,96,0.00,,---,0.71,VWS V14.00,2013-02-09 03:35:00,
2013-02-08 22:40:00,31.9,30.9,29.72,North,360,0.0,0.0,96,0.00,,---,0.71,VWS V14.00,2013-02-09 03:40:00,
2013-02-08 22:45:00,31.9,30.6,29.72,North,360,0.0,0.0,95,0.00,,---,0.71,VWS V14.00,2013-02-09 03:45:00,
2013-02-08 22:50:00,31.9,30.6,29.73,North,360,0.0,0.0,95,0.00,,---,0.71,VWS V14.00,2013-02-09 03:50:00,
2013-02-08 22:55:00,31.8,30.5,29.73,North,360,0.0,0.0,95,0.00,,---,0.71,VWS V14.00,2013-02-09 03:55:00,
2013-02-08 23:00:00,31.7,30.4,29.73,North,360,0.0,0.0,95,0.00,,---,0.71,VWS V14.00,2013-02-09 04:00:00,
2013-02-08 23:05:00,31.7,30.4,29.73,North,360,0.0,0.0,95,0.00,,---,0.71,VWS V14.00,2013-02-09 04:05:00,
2013-02-08 23:10:00,31.7,30.4,29.73,North,360,0.0,0.0,95,0.00,,---,0.71,VWS V14.00,2013-02-09 04:10:00,
2013-02-08 23:15:00,31.6,30.3,29.73,North,360,0.0,0.0,95,0.00,,---,0.71,VWS V14.00,2013-02-09 04:15:00,
2013-02-08 23:20:00,31.5,30.2,29.73,North,360,0.0,0.0,95,0.00,,---,0.71,VWS V14.00,2013-02-09 04:20:00,
2013-02-08 23:25:00,31.5,30.2,29.73,North,360,0.0,0.0,95,0.00,,---,0.71,VWS V14.00,2013-02-09 04:25:00,
2013-02-08 23:30:00,31.3,30.0,29.74,North,360,0.0,0.0,95,0.00,,---,0.71,VWS V14.00,2013-02-09 04:30:00,
2013-02-08 23:35:00,31.2,29.9,29.74,North,360,0.0,0.0,95,0.00,,---,0.71,VWS V14.00,2013-02-09 04:35:00,
2013-02-08 23:40:00,31.1,29.8,29.74,North,360,0.0,0.0,95,0.00,,---,0.71,VWS V14.00,2013-02-09 04:40:00,
2013-02-08 23:45:00,31.0,29.7,29.74,North,360,0.0,0.0,95,0.00,,---,0.71,VWS V14.00,2013-02-09 04:45:00,
2013-02-08 23:50:00,31.0,29.7,29.74,North,360,0.0,0.0,95,0.00,,---,0.71,VWS V14.00,2013-02-09 04:50:00,
2013-02-08 23:55:00,31.0,29.7,29.75,North,360,0.0,0.0,95,0.00,,---,0.71,VWS V14.00,2013-02-09 04:55:00,